sensor_id;sensor_type;location;lat;lon;timestamp;pressure;altitude;pressure_sealevel;temperature;humidity
13434;BME280;6789;47.678;9.158;2023-04-06T00:01:05;97006.91;;;2.92;82.75
13434;BME280;6789;47.678;9.158;2023-04-06T00:05:57;97010.31;;;2.92;83.09
13434;BME280;6789;47.678;9.158;2023-04-06T00:11:03;97005.75;;;2.72;84.67
13434;BME280;6789;47.678;9.158;2023-04-06T00:15:55;97003.94;;;2.73;85.42
13434;BME280;6789;47.678;9.158;2023-04-06T00:20:47;97006.47;;;2.50;86.48
13434;BME280;6789;47.678;9.158;2023-04-06T00:25:53;97020.56;;;2.40;87.75
13434;BME280;6789;47.678;9.158;2023-04-06T00:30:59;97014.78;;;2.38;87.66
13434;BME280;6789;47.678;9.158;2023-04-06T00:36:05;97005.41;;;2.21;89.00
13434;BME280;6789;47.678;9.158;2023-04-06T00:40:57;97007.06;;;2.14;89.41
13434;BME280;6789;47.678;9.158;2023-04-06T00:45:52;97003.38;;;2.09;89.95
13434;BME280;6789;47.678;9.158;2023-04-06T00:51:27;97004.22;;;2.01;90.40
13434;BME280;6789;47.678;9.158;2023-04-06T00:56:19;97006.13;;;1.99;91.26
13434;BME280;6789;47.678;9.158;2023-04-06T01:01:11;96995.31;;;1.96;91.01
13434;BME280;6789;47.678;9.158;2023-04-06T01:06:03;96992.56;;;1.97;91.79
13434;BME280;6789;47.678;9.158;2023-04-06T01:10:54;96985.44;;;1.99;93.39
13434;BME280;6789;47.678;9.158;2023-04-06T01:15:47;96979.16;;;2.02;93.89
13434;BME280;6789;47.678;9.158;2023-04-06T01:20:38;96977.69;;;1.99;93.02
13434;BME280;6789;47.678;9.158;2023-04-06T01:25:30;96978.34;;;1.93;93.58
13434;BME280;6789;47.678;9.158;2023-04-06T01:30:22;96976.78;;;1.76;94.65
13434;BME280;6789;47.678;9.158;2023-04-06T01:35:14;96978.41;;;1.69;94.82
13434;BME280;6789;47.678;9.158;2023-04-06T01:40:07;96970.81;;;1.52;93.71
13434;BME280;6789;47.678;9.158;2023-04-06T01:44:59;96973.25;;;1.45;93.04
13434;BME280;6789;47.678;9.158;2023-04-06T01:49:50;96971.47;;;1.46;94.85
13434;BME280;6789;47.678;9.158;2023-04-06T01:54:44;96965.81;;;1.42;96.32
13434;BME280;6789;47.678;9.158;2023-04-06T01:59:36;96962.94;;;1.38;95.84
13434;BME280;6789;47.678;9.158;2023-04-06T02:04:28;96967.63;;;1.42;95.71
13434;BME280;6789;47.678;9.158;2023-04-06T02:09:20;96967.13;;;1.39;96.61
13434;BME280;6789;47.678;9.158;2023-04-06T02:14:11;96972.44;;;1.53;96.04
13434;BME280;6789;47.678;9.158;2023-04-06T02:19:03;96966.97;;;1.40;96.95
13434;BME280;6789;47.678;9.158;2023-04-06T02:23:55;96964.19;;;1.41;97.03
13434;BME280;6789;47.678;9.158;2023-04-06T02:28:47;96972.25;;;1.46;97.60
13434;BME280;6789;47.678;9.158;2023-04-06T02:33:39;96964.88;;;1.20;98.59
13434;BME280;6789;47.678;9.158;2023-04-06T02:38:30;96963.56;;;1.00;99.90
13434;BME280;6789;47.678;9.158;2023-04-06T02:43:22;96964.19;;;0.94;100.00
13434;BME280;6789;47.678;9.158;2023-04-06T02:48:14;96966.59;;;0.87;100.00
13434;BME280;6789;47.678;9.158;2023-04-06T02:53:06;96959.66;;;0.88;100.00
13434;BME280;6789;47.678;9.158;2023-04-06T02:57:58;96957.09;;;1.04;100.00
13434;BME280;6789;47.678;9.158;2023-04-06T03:02:49;96957.41;;;1.09;100.00
13434;BME280;6789;47.678;9.158;2023-04-06T03:07:41;96968.88;;;0.98;100.00
13434;BME280;6789;47.678;9.158;2023-04-06T03:12:33;96957.41;;;0.77;100.00
13434;BME280;6789;47.678;9.158;2023-04-06T03:17:25;96961.25;;;0.73;100.00
13434;BME280;6789;47.678;9.158;2023-04-06T03:22:17;96966.72;;;0.70;100.00
13434;BME280;6789;47.678;9.158;2023-04-06T03:27:08;96955.44;;;0.63;100.00
13434;BME280;6789;47.678;9.158;2023-04-06T03:32:00;96960.59;;;0.63;100.00
13434;BME280;6789;47.678;9.158;2023-04-06T03:36:52;96955.72;;;0.52;100.00
13434;BME280;6789;47.678;9.158;2023-04-06T03:41:59;96954.72;;;0.53;100.00
13434;BME280;6789;47.678;9.158;2023-04-06T03:46:51;96963.63;;;0.59;100.00
13434;BME280;6789;47.678;9.158;2023-04-06T03:51:43;96971.50;;;0.49;100.00
13434;BME280;6789;47.678;9.158;2023-04-06T03:56:35;96961.66;;;0.45;100.00
13434;BME280;6789;47.678;9.158;2023-04-06T04:01:27;96965.69;;;0.47;100.00
13434;BME280;6789;47.678;9.158;2023-04-06T04:06:19;96968.63;;;0.52;100.00
13434;BME280;6789;47.678;9.158;2023-04-06T04:11:11;96977.13;;;0.45;100.00
13434;BME280;6789;47.678;9.158;2023-04-06T04:16:07;96985.63;;;0.37;100.00
13434;BME280;6789;47.678;9.158;2023-04-06T04:20:59;96980.81;;;0.42;100.00
13434;BME280;6789;47.678;9.158;2023-04-06T04:25:50;96976.63;;;0.41;100.00
13434;BME280;6789;47.678;9.158;2023-04-06T04:30:42;96977.44;;;0.42;100.00
13434;BME280;6789;47.678;9.158;2023-04-06T04:35:34;96989.81;;;0.30;100.00
13434;BME280;6789;47.678;9.158;2023-04-06T04:40:29;96990.41;;;0.24;100.00
13434;BME280;6789;47.678;9.158;2023-04-06T04:45:21;96991.22;;;0.25;100.00
13434;BME280;6789;47.678;9.158;2023-04-06T04:50:13;96983.97;;;0.28;100.00
13434;BME280;6789;47.678;9.158;2023-04-06T04:55:06;96989.00;;;0.30;100.00
13434;BME280;6789;47.678;9.158;2023-04-06T04:59:57;97001.72;;;0.31;100.00
13434;BME280;6789;47.678;9.158;2023-04-06T05:04:49;97003.19;;;0.34;100.00
13434;BME280;6789;47.678;9.158;2023-04-06T05:09:41;97008.88;;;0.45;100.00
13434;BME280;6789;47.678;9.158;2023-04-06T05:14:33;97009.53;;;0.96;100.00
13434;BME280;6789;47.678;9.158;2023-04-06T05:19:25;97001.31;;;1.72;99.35
13434;BME280;6789;47.678;9.158;2023-04-06T05:24:17;97009.22;;;2.49;95.11
13434;BME280;6789;47.678;9.158;2023-04-06T05:29:10;97008.16;;;3.26;90.06
13434;BME280;6789;47.678;9.158;2023-04-06T05:34:02;97007.78;;;4.11;83.83
13434;BME280;6789;47.678;9.158;2023-04-06T05:38:54;97002.47;;;4.76;79.33
13434;BME280;6789;47.678;9.158;2023-04-06T05:43:47;97004.06;;;5.48;75.38
13434;BME280;6789;47.678;9.158;2023-04-06T05:48:39;97018.56;;;6.26;71.58
13434;BME280;6789;47.678;9.158;2023-04-06T05:53:30;97012.75;;;7.10;67.23
13434;BME280;6789;47.678;9.158;2023-04-06T05:58:36;97016.72;;;7.53;65.10
13434;BME280;6789;47.678;9.158;2023-04-06T06:03:28;97018.13;;;7.75;63.56
13434;BME280;6789;47.678;9.158;2023-04-06T06:08:21;97018.38;;;8.25;62.02
13434;BME280;6789;47.678;9.158;2023-04-06T06:13:13;97024.41;;;8.39;61.55
13434;BME280;6789;47.678;9.158;2023-04-06T06:18:05;97029.63;;;8.32;61.63
13434;BME280;6789;47.678;9.158;2023-04-06T06:22:59;97035.66;;;8.20;62.07
13434;BME280;6789;47.678;9.158;2023-04-06T06:28:05;97026.00;;;8.20;62.43
13434;BME280;6789;47.678;9.158;2023-04-06T06:32:56;97026.34;;;7.72;63.79
13434;BME280;6789;47.678;9.158;2023-04-06T06:37:48;97031.72;;;7.38;65.60
13434;BME280;6789;47.678;9.158;2023-04-06T06:42:40;97033.34;;;6.93;67.67
13434;BME280;6789;47.678;9.158;2023-04-06T06:47:32;97035.88;;;6.73;69.42
13434;BME280;6789;47.678;9.158;2023-04-06T06:52:23;97048.38;;;6.50;70.22
13434;BME280;6789;47.678;9.158;2023-04-06T06:57:15;97049.81;;;6.59;70.81
13434;BME280;6789;47.678;9.158;2023-04-06T07:02:07;97050.38;;;6.55;69.82
13434;BME280;6789;47.678;9.158;2023-04-06T07:06:59;97051.06;;;6.36;69.71
13434;BME280;6789;47.678;9.158;2023-04-06T07:11:51;97054.81;;;6.61;70.07
13434;BME280;6789;47.678;9.158;2023-04-06T07:16:56;97059.28;;;6.67;69.29
13434;BME280;6789;47.678;9.158;2023-04-06T07:21:48;97056.88;;;6.38;69.49
13434;BME280;6789;47.678;9.158;2023-04-06T07:27:11;97056.06;;;6.65;68.47
13434;BME280;6789;47.678;9.158;2023-04-06T07:32:04;97049.88;;;7.06;67.88
13434;BME280;6789;47.678;9.158;2023-04-06T07:37:57;97051.09;;;7.10;66.45
13434;BME280;6789;47.678;9.158;2023-04-06T07:42:49;97039.47;;;7.12;65.40
13434;BME280;6789;47.678;9.158;2023-04-06T07:47:58;97043.94;;;7.25;65.27
13434;BME280;6789;47.678;9.158;2023-04-06T07:53:05;97043.16;;;7.37;63.35
13434;BME280;6789;47.678;9.158;2023-04-06T07:57:59;97056.34;;;7.29;63.76
13434;BME280;6789;47.678;9.158;2023-04-06T08:03:05;97046.25;;;7.67;62.06
13434;BME280;6789;47.678;9.158;2023-04-06T08:08:10;97038.03;;;7.82;62.35
13434;BME280;6789;47.678;9.158;2023-04-06T08:13:16;97039.66;;;8.03;60.65
13434;BME280;6789;47.678;9.158;2023-04-06T08:18:22;97039.28;;;8.19;54.30
13434;BME280;6789;47.678;9.158;2023-04-06T08:23:16;97043.69;;;8.25;54.04
13434;BME280;6789;47.678;9.158;2023-04-06T08:28:08;97038.47;;;8.25;55.47
13434;BME280;6789;47.678;9.158;2023-04-06T08:33:06;97043.69;;;8.51;57.01
13434;BME280;6789;47.678;9.158;2023-04-06T08:37:58;97039.22;;;8.64;59.29
13434;BME280;6789;47.678;9.158;2023-04-06T08:42:54;97028.09;;;8.94;58.08
13434;BME280;6789;47.678;9.158;2023-04-06T08:47:54;97027.84;;;9.02;56.82
13434;BME280;6789;47.678;9.158;2023-04-06T08:53:00;97025.22;;;9.02;55.74
13434;BME280;6789;47.678;9.158;2023-04-06T08:58:07;97027.41;;;9.12;56.80
13434;BME280;6789;47.678;9.158;2023-04-06T09:03:00;97025.13;;;9.28;55.69
13434;BME280;6789;47.678;9.158;2023-04-06T09:08:08;97022.44;;;9.41;56.23
13434;BME280;6789;47.678;9.158;2023-04-06T09:13:05;97024.75;;;9.62;55.82
13434;BME280;6789;47.678;9.158;2023-04-06T09:18:06;97016.84;;;9.68;54.62
13434;BME280;6789;47.678;9.158;2023-04-06T09:22:59;97016.97;;;9.80;53.54
13434;BME280;6789;47.678;9.158;2023-04-06T09:28:05;97011.41;;;9.94;52.93
13434;BME280;6789;47.678;9.158;2023-04-06T09:32:59;97009.84;;;10.17;52.37
13434;BME280;6789;47.678;9.158;2023-04-06T09:38:11;97011.47;;;10.18;51.41
13434;BME280;6789;47.678;9.158;2023-04-06T09:43:28;97006.44;;;10.77;50.50
13434;BME280;6789;47.678;9.158;2023-04-06T09:48:35;96999.94;;;10.79;50.31
13434;BME280;6789;47.678;9.158;2023-04-06T09:53:51;96994.38;;;10.94;49.54
13434;BME280;6789;47.678;9.158;2023-04-06T09:59:04;96991.16;;;10.74;49.08
13434;BME280;6789;47.678;9.158;2023-04-06T10:09:25;96985.31;;;10.90;47.80
13434;BME280;6789;47.678;9.158;2023-04-06T10:14:39;96980.63;;;11.10;47.46
13434;BME280;6789;47.678;9.158;2023-04-06T10:20:09;96979.72;;;11.63;46.11
13434;BME280;6789;47.678;9.158;2023-04-06T10:25:08;96967.63;;;11.15;44.79
13434;BME280;6789;47.678;9.158;2023-04-06T10:30:15;96979.84;;;11.09;46.39
13434;BME280;6789;47.678;9.158;2023-04-06T10:35:11;96966.72;;;11.38;43.12
13434;BME280;6789;47.678;9.158;2023-04-06T10:40:29;96963.66;;;11.41;44.05
13434;BME280;6789;47.678;9.158;2023-04-06T10:45:39;96954.69;;;12.12;43.51
13434;BME280;6789;47.678;9.158;2023-04-06T10:50:52;96963.25;;;12.19;43.58
13434;BME280;6789;47.678;9.158;2023-04-06T10:56:01;96953.53;;;12.20;41.86
13434;BME280;6789;47.678;9.158;2023-04-06T11:01:12;96950.44;;;12.34;39.73
13434;BME280;6789;47.678;9.158;2023-04-06T11:06:39;96965.31;;;12.17;38.53
13434;BME280;6789;47.678;9.158;2023-04-06T11:11:46;96955.38;;;12.08;37.99
13434;BME280;6789;47.678;9.158;2023-04-06T11:16:51;96953.41;;;12.04;38.24
13434;BME280;6789;47.678;9.158;2023-04-06T11:22:08;96948.63;;;12.12;37.93
13434;BME280;6789;47.678;9.158;2023-04-06T11:27:15;96948.72;;;11.83;37.74
13434;BME280;6789;47.678;9.158;2023-04-06T11:32:26;96935.44;;;11.66;39.29
13434;BME280;6789;47.678;9.158;2023-04-06T11:37:53;96933.94;;;11.70;37.19
13434;BME280;6789;47.678;9.158;2023-04-06T11:43:04;96936.13;;;11.44;37.85
13434;BME280;6789;47.678;9.158;2023-04-06T11:48:25;96932.44;;;11.34;38.14
13434;BME280;6789;47.678;9.158;2023-04-06T11:54:49;96915.25;;;11.49;36.47
13434;BME280;6789;47.678;9.158;2023-04-06T11:59:48;96906.88;;;11.81;35.79
13434;BME280;6789;47.678;9.158;2023-04-06T12:04:41;96898.34;;;12.09;35.77
13434;BME280;6789;47.678;9.158;2023-04-06T12:09:47;96898.13;;;12.10;36.20
13434;BME280;6789;47.678;9.158;2023-04-06T12:15:07;96882.78;;;12.18;34.99
13434;BME280;6789;47.678;9.158;2023-04-06T12:20:13;96889.84;;;12.29;34.12
13434;BME280;6789;47.678;9.158;2023-04-06T12:25:20;96879.38;;;12.69;34.56
13434;BME280;6789;47.678;9.158;2023-04-06T12:30:26;96872.13;;;12.76;32.71
13434;BME280;6789;47.678;9.158;2023-04-06T12:35:36;96880.03;;;13.15;32.17
13434;BME280;6789;47.678;9.158;2023-04-06T12:40:42;96884.59;;;13.19;31.30
13434;BME280;6789;47.678;9.158;2023-04-06T12:45:36;96878.44;;;13.14;30.34
13434;BME280;6789;47.678;9.158;2023-04-06T12:50:43;96871.63;;;13.01;30.81
13434;BME280;6789;47.678;9.158;2023-04-06T12:55:51;96884.66;;;13.24;29.71
13434;BME280;6789;47.678;9.158;2023-04-06T13:00:58;96869.66;;;13.08;29.66
13434;BME280;6789;47.678;9.158;2023-04-06T13:06:01;96876.44;;;13.04;30.34
13434;BME280;6789;47.678;9.158;2023-04-06T13:11:07;96874.78;;;13.31;29.59
13434;BME280;6789;47.678;9.158;2023-04-06T13:16:14;96862.19;;;13.33;29.90
13434;BME280;6789;47.678;9.158;2023-04-06T13:21:23;96863.09;;;13.71;30.33
13434;BME280;6789;47.678;9.158;2023-04-06T13:26:31;96856.84;;;13.94;30.50
13434;BME280;6789;47.678;9.158;2023-04-06T13:31:37;96850.53;;;13.95;31.07
13434;BME280;6789;47.678;9.158;2023-04-06T13:36:44;96859.91;;;13.53;31.47
13434;BME280;6789;47.678;9.158;2023-04-06T13:41:53;96867.06;;;13.41;32.12
13434;BME280;6789;47.678;9.158;2023-04-06T13:47:01;96856.34;;;13.31;32.48
13434;BME280;6789;47.678;9.158;2023-04-06T13:52:07;96853.59;;;12.82;33.00
13434;BME280;6789;47.678;9.158;2023-04-06T13:57:15;96846.03;;;12.85;33.28
13434;BME280;6789;47.678;9.158;2023-04-06T14:02:21;96850.81;;;13.00;32.96
13434;BME280;6789;47.678;9.158;2023-04-06T14:07:21;96853.47;;;13.16;32.99
13434;BME280;6789;47.678;9.158;2023-04-06T14:12:15;96843.09;;;13.26;33.17
13434;BME280;6789;47.678;9.158;2023-04-06T14:17:14;96847.75;;;13.36;33.13
13434;BME280;6789;47.678;9.158;2023-04-06T14:22:06;96841.13;;;13.33;32.90
13434;BME280;6789;47.678;9.158;2023-04-06T14:26:59;96840.09;;;13.51;32.94
13434;BME280;6789;47.678;9.158;2023-04-06T14:32:06;96835.31;;;13.64;32.55
13434;BME280;6789;47.678;9.158;2023-04-06T14:36:58;96834.84;;;14.05;31.79
13434;BME280;6789;47.678;9.158;2023-04-06T14:41:50;96835.81;;;13.99;31.66
13434;BME280;6789;47.678;9.158;2023-04-06T14:46:56;96836.13;;;14.19;31.47
13434;BME280;6789;47.678;9.158;2023-04-06T14:51:48;96830.25;;;14.33;31.72
13434;BME280;6789;47.678;9.158;2023-04-06T14:56:48;96830.84;;;14.19;31.78
13434;BME280;6789;47.678;9.158;2023-04-06T15:01:45;96829.88;;;14.25;32.68
13434;BME280;6789;47.678;9.158;2023-04-06T15:06:39;96824.06;;;14.23;32.47
13434;BME280;6789;47.678;9.158;2023-04-06T15:11:31;96818.50;;;14.40;32.27
13434;BME280;6789;47.678;9.158;2023-04-06T15:16:23;96819.09;;;14.47;32.67
13434;BME280;6789;47.678;9.158;2023-04-06T15:21:15;96820.81;;;14.58;32.11
13434;BME280;6789;47.678;9.158;2023-04-06T15:26:06;96822.88;;;14.56;32.15
13434;BME280;6789;47.678;9.158;2023-04-06T15:30:58;96809.94;;;14.76;32.85
13434;BME280;6789;47.678;9.158;2023-04-06T15:35:50;96819.94;;;14.74;31.31
13434;BME280;6789;47.678;9.158;2023-04-06T15:40:57;96818.28;;;14.47;31.55
13434;BME280;6789;47.678;9.158;2023-04-06T15:45:49;96826.41;;;14.03;31.52
13434;BME280;6789;47.678;9.158;2023-04-06T15:50:40;96820.81;;;13.99;31.40
13434;BME280;6789;47.678;9.158;2023-04-06T15:55:46;96813.81;;;13.88;30.89
13434;BME280;6789;47.678;9.158;2023-04-06T16:00:38;96820.53;;;13.63;31.43
13434;BME280;6789;47.678;9.158;2023-04-06T16:05:29;96809.50;;;13.66;31.88
13434;BME280;6789;47.678;9.158;2023-04-06T16:10:28;96811.25;;;13.60;32.30
13434;BME280;6789;47.678;9.158;2023-04-06T16:15:22;96810.88;;;13.52;32.63
13434;BME280;6789;47.678;9.158;2023-04-06T16:20:13;96820.63;;;13.52;32.95
13434;BME280;6789;47.678;9.158;2023-04-06T16:25:07;96816.06;;;13.47;32.71
13434;BME280;6789;47.678;9.158;2023-04-06T16:30:13;96819.88;;;13.56;32.26
13434;BME280;6789;47.678;9.158;2023-04-06T16:35:05;96823.88;;;13.58;32.43
13434;BME280;6789;47.678;9.158;2023-04-06T16:40:11;96818.63;;;13.26;33.15
13434;BME280;6789;47.678;9.158;2023-04-06T16:45:05;96824.09;;;13.24;33.44
13434;BME280;6789;47.678;9.158;2023-04-06T16:49:57;96826.22;;;12.94;34.20
13434;BME280;6789;47.678;9.158;2023-04-06T16:54:57;96830.03;;;12.87;35.23
13434;BME280;6789;47.678;9.158;2023-04-06T17:00:07;96817.97;;;12.63;37.41
13434;BME280;6789;47.678;9.158;2023-04-06T17:05:02;96824.88;;;12.53;36.38
13434;BME280;6789;47.678;9.158;2023-04-06T17:09:54;96832.44;;;12.38;36.27
13434;BME280;6789;47.678;9.158;2023-04-06T17:14:45;96834.88;;;12.28;37.00
13434;BME280;6789;47.678;9.158;2023-04-06T17:19:37;96837.19;;;12.13;37.25
13434;BME280;6789;47.678;9.158;2023-04-06T17:24:29;96838.22;;;12.01;36.01
13434;BME280;6789;47.678;9.158;2023-04-06T17:29:20;96839.84;;;11.90;35.76
13434;BME280;6789;47.678;9.158;2023-04-06T17:34:12;96841.09;;;11.76;36.13
13434;BME280;6789;47.678;9.158;2023-04-06T17:39:04;96837.66;;;11.64;36.39
13434;BME280;6789;47.678;9.158;2023-04-06T17:43:56;96847.94;;;11.54;36.29
13434;BME280;6789;47.678;9.158;2023-04-06T17:48:47;96839.41;;;11.41;37.04
13434;BME280;6789;47.678;9.158;2023-04-06T17:53:39;96837.16;;;11.33;36.82
13434;BME280;6789;47.678;9.158;2023-04-06T17:58:32;96854.34;;;11.29;37.59
13434;BME280;6789;47.678;9.158;2023-04-06T18:03:24;96855.72;;;11.20;37.96
13434;BME280;6789;47.678;9.158;2023-04-06T18:08:16;96860.56;;;11.05;37.96
13434;BME280;6789;47.678;9.158;2023-04-06T18:13:08;96867.84;;;10.92;38.16
13434;BME280;6789;47.678;9.158;2023-04-06T18:18:00;96874.75;;;10.86;38.70
13434;BME280;6789;47.678;9.158;2023-04-06T18:22:51;96880.09;;;10.80;38.39
13434;BME280;6789;47.678;9.158;2023-04-06T18:27:43;96881.22;;;10.72;38.90
13434;BME280;6789;47.678;9.158;2023-04-06T18:32:35;96884.84;;;10.71;39.48
13434;BME280;6789;47.678;9.158;2023-04-06T18:37:27;96891.34;;;10.69;39.54
13434;BME280;6789;47.678;9.158;2023-04-06T18:42:19;96901.91;;;10.63;39.98
13434;BME280;6789;47.678;9.158;2023-04-06T18:47:11;96902.00;;;10.85;39.75
13434;BME280;6789;47.678;9.158;2023-04-06T18:52:06;96905.91;;;10.65;39.56
13434;BME280;6789;47.678;9.158;2023-04-06T18:56:58;96910.72;;;10.68;38.39
13434;BME280;6789;47.678;9.158;2023-04-06T19:01:50;96906.59;;;10.90;37.03
13434;BME280;6789;47.678;9.158;2023-04-06T19:06:48;96911.13;;;10.83;38.40
13434;BME280;6789;47.678;9.158;2023-04-06T19:11:54;96921.47;;;10.78;38.12
13434;BME280;6789;47.678;9.158;2023-04-06T19:17:06;96925.09;;;10.95;40.11
13434;BME280;6789;47.678;9.158;2023-04-06T19:22:24;96927.94;;;10.93;40.92
13434;BME280;6789;47.678;9.158;2023-04-06T19:27:20;96931.69;;;10.86;41.18
13434;BME280;6789;47.678;9.158;2023-04-06T19:32:15;96927.91;;;10.82;42.46
13434;BME280;6789;47.678;9.158;2023-04-06T19:37:10;96932.63;;;10.73;43.80
13434;BME280;6789;47.678;9.158;2023-04-06T19:42:16;96941.00;;;10.64;45.00
13434;BME280;6789;47.678;9.158;2023-04-06T19:47:16;96944.22;;;10.48;47.54
13434;BME280;6789;47.678;9.158;2023-04-06T19:52:26;96953.97;;;10.41;48.44
13434;BME280;6789;47.678;9.158;2023-04-06T19:57:33;96946.63;;;10.32;50.36
13434;BME280;6789;47.678;9.158;2023-04-06T20:02:42;96958.75;;;10.26;48.99
13434;BME280;6789;47.678;9.158;2023-04-06T20:08:12;96966.84;;;10.25;49.56
13434;BME280;6789;47.678;9.158;2023-04-06T20:13:36;96970.03;;;10.09;47.90
13434;BME280;6789;47.678;9.158;2023-04-06T20:18:29;96975.91;;;10.04;51.79
13434;BME280;6789;47.678;9.158;2023-04-06T20:23:22;96978.25;;;10.12;52.41
13434;BME280;6789;47.678;9.158;2023-04-06T20:28:14;96963.34;;;9.82;54.01
13434;BME280;6789;47.678;9.158;2023-04-06T20:33:07;96971.47;;;9.74;55.12
13434;BME280;6789;47.678;9.158;2023-04-06T20:38:00;96966.03;;;9.76;55.89
13434;BME280;6789;47.678;9.158;2023-04-06T20:42:55;96965.50;;;9.92;54.27
13434;BME280;6789;47.678;9.158;2023-04-06T20:47:53;96963.06;;;9.66;55.20
13434;BME280;6789;47.678;9.158;2023-04-06T20:52:45;96976.00;;;9.61;54.68
13434;BME280;6789;47.678;9.158;2023-04-06T20:57:41;96974.41;;;9.60;54.32
13434;BME280;6789;47.678;9.158;2023-04-06T21:02:35;96980.63;;;9.59;54.81
13434;BME280;6789;47.678;9.158;2023-04-06T21:07:29;96967.28;;;9.42;56.14
13434;BME280;6789;47.678;9.158;2023-04-06T21:12:21;96972.03;;;9.52;57.35
13434;BME280;6789;47.678;9.158;2023-04-06T21:17:13;96962.84;;;9.43;57.48
13434;BME280;6789;47.678;9.158;2023-04-06T21:22:04;96979.38;;;9.37;59.52
13434;BME280;6789;47.678;9.158;2023-04-06T21:26:56;96978.63;;;9.30;62.59
13434;BME280;6789;47.678;9.158;2023-04-06T21:31:48;96977.69;;;9.18;63.27
13434;BME280;6789;47.678;9.158;2023-04-06T21:36:40;96969.22;;;9.16;64.74
13434;BME280;6789;47.678;9.158;2023-04-06T21:41:33;96976.94;;;9.05;65.37
13434;BME280;6789;47.678;9.158;2023-04-06T21:46:25;96979.56;;;8.98;68.13
13434;BME280;6789;47.678;9.158;2023-04-06T21:51:18;96976.09;;;8.67;72.27
13434;BME280;6789;47.678;9.158;2023-04-06T21:56:10;96976.91;;;8.61;75.52
13434;BME280;6789;47.678;9.158;2023-04-06T22:01:09;96976.53;;;8.38;76.64
13434;BME280;6789;47.678;9.158;2023-04-06T22:06:04;96973.94;;;8.38;78.26
13434;BME280;6789;47.678;9.158;2023-04-06T22:10:58;96963.69;;;8.37;81.30
13434;BME280;6789;47.678;9.158;2023-04-06T22:15:52;96960.06;;;8.31;79.96
13434;BME280;6789;47.678;9.158;2023-04-06T22:20:45;96953.47;;;8.29;80.72
13434;BME280;6789;47.678;9.158;2023-04-06T22:25:38;96955.69;;;8.19;82.56
13434;BME280;6789;47.678;9.158;2023-04-06T22:30:37;96944.41;;;8.31;81.66
13434;BME280;6789;47.678;9.158;2023-04-06T22:35:30;96941.22;;;8.29;83.61
13434;BME280;6789;47.678;9.158;2023-04-06T22:40:26;96928.38;;;8.21;84.40
13434;BME280;6789;47.678;9.158;2023-04-06T22:45:21;96923.53;;;8.12;84.29
13434;BME280;6789;47.678;9.158;2023-04-06T22:50:23;96914.53;;;7.95;85.24
13434;BME280;6789;47.678;9.158;2023-04-06T22:55:23;96910.09;;;7.82;82.66
13434;BME280;6789;47.678;9.158;2023-04-06T23:00:16;96911.94;;;7.82;84.79
13434;BME280;6789;47.678;9.158;2023-04-06T23:05:10;96899.66;;;7.82;84.93
13434;BME280;6789;47.678;9.158;2023-04-06T23:10:02;96897.88;;;7.83;84.34
13434;BME280;6789;47.678;9.158;2023-04-06T23:14:54;96895.03;;;7.91;84.17
13434;BME280;6789;47.678;9.158;2023-04-06T23:19:46;96886.41;;;7.90;84.46
13434;BME280;6789;47.678;9.158;2023-04-06T23:24:38;96880.41;;;7.83;83.77
13434;BME280;6789;47.678;9.158;2023-04-06T23:29:30;96878.19;;;7.80;85.03
13434;BME280;6789;47.678;9.158;2023-04-06T23:34:22;96883.22;;;7.82;83.78
13434;BME280;6789;47.678;9.158;2023-04-06T23:39:14;96870.94;;;7.82;83.94
13434;BME280;6789;47.678;9.158;2023-04-06T23:44:06;96868.38;;;7.76;83.03
13434;BME280;6789;47.678;9.158;2023-04-06T23:48:57;96853.69;;;7.75;83.96
13434;BME280;6789;47.678;9.158;2023-04-06T23:53:49;96854.09;;;7.72;86.34
13434;BME280;6789;47.678;9.158;2023-04-06T23:58:41;96851.31;;;7.67;87.22
